createdAt,value
2018-06-28T00:00:03.066Z,16.3
2018-06-28T00:05:00.844Z,16.3
2018-06-28T00:09:58.321Z,16.9
2018-06-28T00:14:55.669Z,16.4
2018-06-28T00:19:53.306Z,16.9
2018-06-28T00:24:50.786Z,16.9
2018-06-28T00:29:47.968Z,16.4
2018-06-28T00:34:45.646Z,16.3
2018-06-28T00:39:43.616Z,16.9
2018-06-28T00:44:40.964Z,16.3
2018-06-28T00:49:38.088Z,16.9
2018-06-28T00:54:35.440Z,16.9
2018-06-28T00:59:32.942Z,16.9
2018-06-28T01:04:30.360Z,16.9
2018-06-28T01:09:27.549Z,16.3
2018-06-28T01:14:25.052Z,16.9
2018-06-28T01:19:22.669Z,16.3
2018-06-28T01:24:20.243Z,16.2
2018-06-28T01:29:18.147Z,16.7
2018-06-28T01:34:15.521Z,16.3
2018-06-28T01:39:13.249Z,16.9
2018-06-28T01:44:10.867Z,16.3
2018-06-28T01:49:08.464Z,16.3
2018-06-28T01:54:06.459Z,16.3
2018-06-28T01:59:04.195Z,16.3
2018-06-28T02:04:01.696Z,16.8
2018-06-28T02:08:59.182Z,16.3
2018-06-28T02:13:56.632Z,16.3
2018-06-28T02:18:54.186Z,16.8
2018-06-28T02:23:51.862Z,16.8
2018-06-28T02:28:49.497Z,16.2
2018-06-28T02:33:46.984Z,16.2
2018-06-28T02:38:44.370Z,16.3
2018-06-28T02:43:42.099Z,16.8
2018-06-28T02:48:39.867Z,16.2
2018-06-28T02:53:37.706Z,16.2
2018-06-28T02:58:35.098Z,16.8
2018-06-28T03:03:32.616Z,16.7
2018-06-28T03:08:30.015Z,16.2
2018-06-28T03:13:27.109Z,16.7
2018-06-28T03:18:24.492Z,16.1
2018-06-28T03:23:22.133Z,16.1
2018-06-28T03:28:19.597Z,16.1
2018-06-28T03:33:17.191Z,16.6
2018-06-28T03:38:14.508Z,16.1
2018-06-28T03:43:12.276Z,16.6
2018-06-28T03:48:10.029Z,16.6
2018-06-28T03:53:07.458Z,16.6
2018-06-28T03:58:05.079Z,16
2018-06-28T04:03:03.908Z,16.1
2018-06-28T04:08:02.167Z,16.1
2018-06-28T04:12:59.426Z,16.1
2018-06-28T04:17:56.705Z,16.6
2018-06-28T04:22:53.836Z,16
2018-06-28T04:27:51.334Z,16
2018-06-28T04:32:48.567Z,16
2018-06-28T04:37:46.182Z,16
2018-06-28T04:42:43.723Z,16.6
2018-06-28T04:47:41.344Z,16.6
2018-06-28T04:52:38.713Z,16.6
2018-06-28T04:57:36.385Z,16.1
2018-06-28T05:02:34.013Z,16.1
2018-06-28T05:07:31.488Z,16.1
2018-06-28T05:12:28.312Z,16.1
2018-06-28T05:17:25.726Z,16
2018-06-28T05:22:23.108Z,16.1
2018-06-28T05:27:20.393Z,16.1
2018-06-28T05:32:17.688Z,16.2
2018-06-28T05:37:15.299Z,16.2
2018-06-28T05:42:12.730Z,16.2
2018-06-28T05:47:10.275Z,16.8
2018-06-28T05:52:07.785Z,16.8
2018-06-28T05:57:05.230Z,16.9
2018-06-28T06:02:02.516Z,16.9
2018-06-28T06:07:00.376Z,16.4
2018-06-28T06:11:58.019Z,16.4
2018-06-28T06:16:55.408Z,16.9
2018-06-28T06:21:52.580Z,16.4
2018-06-28T06:26:50.167Z,16.5
2018-06-28T06:31:47.856Z,17
2018-06-28T06:36:45.227Z,16.5
2018-06-28T06:41:42.725Z,16.5
2018-06-28T06:46:40.691Z,17
2018-06-28T06:51:37.670Z,17.1
2018-06-28T06:56:35.234Z,16.5
2018-06-28T07:01:32.832Z,17.2
2018-06-28T07:06:30.171Z,16.7
2018-06-28T07:11:27.613Z,16.7
2018-06-28T07:16:25.004Z,16.9
2018-06-28T07:21:23.333Z,16.8
2018-06-28T07:26:20.347Z,17.4
2018-06-28T07:31:17.774Z,17.5
2018-06-28T07:36:15.497Z,17.4
2018-06-28T07:41:12.782Z,16.8
2018-06-28T07:46:10.692Z,17.4
2018-06-28T07:51:07.589Z,16.6
2018-06-28T07:56:05.401Z,16.8
2018-06-28T08:01:02.652Z,17.4
2018-06-28T08:06:00.912Z,17.4
2018-06-28T08:10:58.402Z,16.9
2018-06-28T08:15:55.812Z,16.9
2018-06-28T08:20:53.186Z,16.9
2018-06-28T08:25:50.756Z,17.3
2018-06-28T08:30:47.927Z,16.9
2018-06-28T08:35:45.445Z,17
2018-06-28T08:40:42.635Z,17
2018-06-28T08:45:40.134Z,17
2018-06-28T08:50:40.568Z,17
2018-06-28T08:55:41.116Z,17
2018-06-28T09:00:40.654Z,17.6
2018-06-28T09:05:38.928Z,17.1
2018-06-28T09:10:39.629Z,17.1
2018-06-28T09:15:40.642Z,17.7
2018-06-28T09:20:41.619Z,17.8
2018-06-28T09:25:38.540Z,17.2
2018-06-28T09:30:35.877Z,17.9
2018-06-28T09:35:33.169Z,17.9
2018-06-28T09:40:30.462Z,17.8
2018-06-28T09:45:27.711Z,17.3
2018-06-28T09:50:24.960Z,17.3
2018-06-28T09:55:22.224Z,17.3
2018-06-28T10:00:19.808Z,17.9
2018-06-28T10:05:16.934Z,17.9
2018-06-28T10:10:14.358Z,18
2018-06-28T10:15:11.419Z,17.4
2018-06-28T10:20:08.680Z,17.5
2018-06-28T10:25:06.060Z,17.5
2018-06-28T10:30:03.736Z,18.1
2018-06-28T10:35:01.311Z,18.1
2018-06-28T10:39:59.033Z,18.1
2018-06-28T10:44:56.724Z,17.6
2018-06-28T10:49:54.255Z,17.6
2018-06-28T10:54:51.770Z,18.1
2018-06-28T10:59:49.187Z,17.7
2018-06-28T11:04:46.824Z,17.6
2018-06-28T11:09:44.243Z,17.8
2018-06-28T11:14:42.167Z,17.8
2018-06-28T11:19:39.995Z,17.9
2018-06-28T11:24:37.426Z,17.9
2018-06-28T11:29:35.042Z,17.9
2018-06-28T11:34:32.419Z,18
2018-06-28T11:39:30.046Z,17.6
2018-06-28T11:44:27.400Z,17.9
2018-06-28T11:49:25.013Z,17.9
2018-06-28T11:54:22.704Z,17.9
2018-06-28T11:59:20.388Z,17.9
2018-06-28T12:04:17.928Z,17.9
2018-06-28T12:09:15.482Z,17.9
2018-06-28T12:14:13.269Z,18.4
2018-06-28T12:19:10.981Z,17.8
2018-06-28T12:24:08.703Z,17.8
2018-06-28T12:29:05.990Z,17.9
2018-06-28T12:34:03.369Z,18.4
2018-06-28T12:39:00.907Z,17.3
2018-06-28T12:43:59.224Z,17.9
2018-06-28T12:48:56.808Z,17.8
2018-06-28T12:53:54.326Z,17.8
2018-06-28T12:58:51.858Z,17.8
2018-06-28T13:03:49.362Z,17.8
2018-06-28T13:08:47.190Z,18.4
2018-06-28T13:13:44.961Z,17.8
2018-06-28T13:18:42.673Z,18.4
2018-06-28T13:23:40.315Z,17.9
2018-06-28T13:28:37.453Z,17.8
2018-06-28T13:33:34.897Z,17.8
2018-06-28T13:38:32.545Z,18.4
2018-06-28T13:43:30.205Z,18.4
2018-06-28T13:48:27.613Z,17.8
2018-06-28T13:53:25.126Z,17.8
2018-06-28T13:58:22.701Z,17.9
2018-06-28T14:03:20.587Z,17.8
2018-06-28T14:08:18.725Z,18.4
2018-06-28T14:13:16.516Z,17.8
2018-06-28T14:18:13.908Z,17.8
2018-06-28T14:23:12.172Z,18.3
2018-06-28T14:28:09.760Z,17.8
2018-06-28T14:33:07.300Z,18.4
2018-06-28T14:38:04.976Z,18.4
2018-06-28T14:43:02.544Z,18.4
2018-06-28T14:48:00.071Z,18.4
2018-06-28T14:52:57.643Z,18.4
2018-06-28T14:57:55.224Z,18.3
2018-06-28T15:02:52.582Z,18.3
2018-06-28T15:07:50.091Z,17.7
2018-06-28T15:12:47.849Z,18.3
2018-06-28T15:17:45.115Z,17.7
2018-06-28T15:22:42.412Z,17.7
2018-06-28T15:27:40.159Z,17.6
2018-06-28T15:32:37.870Z,18.2
2018-06-28T15:37:35.403Z,18.2
2018-06-28T15:42:32.597Z,17.7
2018-06-28T15:47:30.067Z,17.7
2018-06-28T15:52:27.442Z,17.6
2018-06-28T15:57:25.215Z,17.7
2018-06-28T16:02:22.682Z,18.2
2018-06-28T16:07:20.000Z,17.7
2018-06-28T16:12:17.426Z,17.7
2018-06-28T16:17:14.960Z,17.7
2018-06-28T16:22:12.227Z,17.7
2018-06-28T16:27:09.493Z,17.7
2018-06-28T16:32:06.758Z,18.3
2018-06-28T16:37:04.255Z,17.7
2018-06-28T16:42:01.687Z,17.7
2018-06-28T16:46:58.820Z,17.7
2018-06-28T16:51:56.223Z,17.7
2018-06-28T16:56:53.711Z,17.6
2018-06-28T17:01:51.262Z,17.6
2018-06-28T17:06:48.462Z,17.6
2018-06-28T17:11:46.103Z,17.4
2018-06-28T17:16:43.321Z,17.6
2018-06-28T17:21:41.045Z,18.1
2018-06-28T17:26:40.038Z,17.5
2018-06-28T17:31:40.531Z,17.5
2018-06-28T17:36:42.405Z,17.6
2018-06-28T17:41:39.804Z,16.6
2018-06-28T17:46:36.487Z,17.5
2018-06-28T17:51:33.602Z,17.5
2018-06-28T17:56:31.056Z,17.5
2018-06-28T18:01:28.269Z,17.5
2018-06-28T18:06:27.854Z,18
2018-06-28T18:11:25.288Z,18
2018-06-28T18:16:22.264Z,18
2018-06-28T18:21:19.561Z,17.8
2018-06-28T18:26:16.931Z,17.4
2018-06-28T18:31:14.729Z,17.9
2018-06-28T18:36:12.269Z,17.3
2018-06-28T18:41:09.205Z,17.8
2018-06-28T18:46:06.892Z,17.2
2018-06-28T18:51:04.182Z,17.7
2018-06-28T18:56:01.423Z,17.7
2018-06-28T19:00:58.818Z,17.1
2018-06-28T19:05:56.562Z,16.7
2018-06-28T19:10:53.680Z,17.1
2018-06-28T19:15:51.188Z,17
2018-06-28T19:20:48.498Z,17.5
2018-06-28T19:25:45.740Z,17.5
2018-06-28T19:30:42.852Z,16.9
2018-06-28T19:35:40.016Z,17.5
2018-06-28T19:40:37.322Z,16.9
2018-06-28T19:45:34.770Z,16.9
2018-06-28T19:50:32.353Z,17.4
2018-06-28T19:55:29.397Z,16.8
2018-06-28T20:00:26.984Z,16.8
2018-06-28T20:05:24.690Z,17.4
2018-06-28T20:10:22.306Z,16.8
2018-06-28T20:15:19.941Z,17.4
2018-06-28T20:20:24.376Z,16.8
2018-06-28T20:25:18.931Z,16.9
2018-06-28T20:30:16.604Z,16.9
2018-06-28T20:35:14.123Z,16.9
2018-06-28T20:40:11.929Z,17.4
2018-06-28T20:45:09.613Z,16.9
2018-06-28T20:50:07.640Z,16.9
2018-06-28T20:55:05.154Z,16.9
2018-06-28T21:00:02.724Z,16.7
2018-06-28T21:05:00.420Z,17.4
2018-06-28T21:09:57.884Z,16.8
2018-06-28T21:14:55.509Z,16.8
2018-06-28T21:19:52.695Z,16.8
2018-06-28T21:24:49.969Z,17.4
2018-06-28T21:29:47.385Z,17.4
2018-06-28T21:34:44.854Z,16.8
2018-06-28T21:39:42.335Z,16.8
2018-06-28T21:44:39.424Z,16.6
2018-06-28T21:49:36.682Z,16.8
2018-06-28T21:54:34.057Z,17.3
2018-06-28T21:59:31.564Z,17.3
2018-06-28T22:04:28.786Z,16.8
2018-06-28T22:09:25.870Z,16.8
2018-06-28T22:14:23.159Z,16.8
2018-06-28T22:19:20.486Z,17.3
2018-06-28T22:24:17.872Z,16.7
2018-06-28T22:29:15.271Z,16.7
2018-06-28T22:34:12.560Z,16.6
2018-06-28T22:39:10.066Z,16.6
2018-06-28T22:44:07.461Z,16.6
2018-06-28T22:49:04.755Z,16.6
2018-06-28T22:54:01.941Z,16.6
2018-06-28T22:58:59.449Z,16.5
2018-06-28T23:03:56.732Z,16.6
2018-06-28T23:08:54.056Z,16.5
2018-06-28T23:13:51.330Z,16.6
2018-06-28T23:18:48.850Z,16.5
2018-06-28T23:23:46.175Z,16.5
2018-06-28T23:28:43.852Z,17.1
2018-06-28T23:33:41.188Z,17.1
2018-06-28T23:38:38.669Z,16.4
2018-06-28T23:43:36.225Z,16.5
2018-06-28T23:48:33.896Z,17.1
2018-06-28T23:53:31.454Z,17.1
2018-06-28T23:58:28.544Z,16.6
